Terminal Aerodrome Forecast
Issued by NWS

Home | Current Version | Previous Version | Text Only | Print | Product List | Glossary On
Versions: 1 2 3 4 5 6 7 8 9 10 11 12 13 14 15 16 17 18
000
FTPQ31 PGUM 131727
TAFGUM
TAF

TAF
PTKK 131727Z 1318/1418 06012KT 6SM -RA SCT014 BKN040 OVC100
      TEMPO 1318/1322 3SM +SHRA BKN012 OVC030
     FM140000 06009KT P6SM VCSH SCT016 SCT050 BKN120=

USA.gov is the U.S. government's official web portal to all federal, state and local government web resources and services.